6AR4 weather

Baptist Health Medical Center-Heber Spring Heliport
Heber Springs, Arkansas, United States

Public forecast

Using degrees Fahrenheit for public forecast. Weather courtesy of forecast.io.

Closest aviation weather report (METAR) to Baptist Health Medical Center-Heber Spring Heliport

Closest report is Batesville Regional Airport, 21.7 nm (40.1 km) NE. Retrieved 2020/08/04 10:56 UTC (9 minutes ago):

KBVX 041056Z AUTO 29003KT 10SM CLR 18/17 A3004 RMK AO2 SLP168 T01830172

Closest aviation forecast (TAF) to Baptist Health Medical Center-Heber Spring Heliport

Closest forecast is Little Rock Air Force Base, 36.1 nm (66.8 km) SSW. Retrieved 2020/08/04 07:06 UTC (4 hours ago):

TAF TAF KLRF 040700Z 0407/0513 VRB06KT 9999 SCT100 QNH2996INS BECMG 0410/0411 VRB06KT 9999 SCT030 QNH3002INS BECMG 0415/0416 VRB06KT 9999 SCT050 QNH3000INS TX29/0420Z TN18/0411Z